Las Palmas de Gran Canaria, Spain

07:07 PM WEST on Oktober 19, 2018 (GMT +0100)
Tejeda, Lomo de los Santos | | Change Station

Elev 3609 ft 28.00 °N, 15.61 °W | Updated 24 seconds ago

Regn
Regn
57.9 °F
Feels Like 57.9 °F
N
5.6
Vind Växlande Vind from N/NO
Gusts 4.7 miles/tim

Idag
High -- | Low -- °F
--% Chance of Precip.
Yesterday
High -- | Low -- °F
Precip. -- tum
Lufttryck 30.01 tum
Sikt 6.2 miles
Molnigt Few 200 ft
Växlande molnighet 700 ft
Mestadels molnigt 2500 ft
Daggpunkt 56 °F
Luftfuktighet 92%
Rainfall 0.10 tum
Snow Depth Not available.
8:05 AM 7:29 PM
Andra kvarteret, 77% visible
METAR GCXO 191800Z 30011KT 9999 FEW002 SCT007 BKN025 16/15 Q1016 NOSIG
Lufttryck 30.01 tum
Sikt 6.2 miles
Molnigt Few 200 ft
Växlande molnighet 700 ft
Mestadels molnigt 2500 ft
Daggpunkt 56 °F
Luftfuktighet 92%
Rainfall 0.10 tum
Snow Depth Not available.
8:05 AM 7:29 PM
Andra kvarteret, 77% visible
METAR GCXO 191800Z 30011KT 9999 FEW002 SCT007 BKN025 16/15 Q1016 NOSIG

Get Severe Weather Alerts

Thanks for signing up!

Be on the lookout for a verification email in your inbox.

You'll start receiving the daily forecast at 6 AM.

×

10-Day Weather Forecast

×

Almanac

Astronomi

Oct. 19, 2018 Rise Set
Actual Time
Civil Twilight
Nautical Twilight
Astronomical Twilight
Månen
Length Of Visible Light
Dagens längd
Tomorrow will be .
, % of the Moon is Illuminated

Today's Extremes

Country Highs Country Lows

Community

WunderPhotos

Category 6

Welcome to Category 6. This is the collective home for Weather Underground's featured writeups by Dr. Jeff Masters (right), Bob Henson (left), Chris Burt, and other regular contributors.

Nearby

Air Quality

  Air Quality AQ Index Pollutant
Not available.

Snödjup

Station Depth Elevation

Earthquake Activity

Stad Distance Mag. Time & Date
Minimum magnitude displayed is 2.5.

Coastal Water Temperatures

Plats Temperatur

Stations

Nearby Weather Stations

Station Location Temp Vindavkylning Daggpunkt Luftfuktighet Vind Precip. Elev Uppdaterad Type